Time;durP1;ratioP1;P1;durP2;ratioP2;P2;SDS_P1;SDS_P2;PMS_P1;PMS_P2;Temp;Humidity;BMP_temperature;BMP_pressure;BME280_temperature;BME280_humidity;BME280_pressure;Samples;Min_cycle;Max_cycle;Signal;HPM_P1;HPM_P2
2022/03/31 00:00:24;;;;;;;5.68;2.00;;;;;;;;;;4975852;28;20062;-73
2022/03/31 00:02:50;;;;;;;4.13;1.95;;;;;;;;;;4975074;28;20043;-73
2022/03/31 00:05:16;;;;;;;5.55;2.00;;;;;;;;;;4972537;28;20101;-73
2022/03/31 00:07:53;;;;;;;7.40;1.80;;;;;;;;;;4957516;28;20047;-73
2022/03/31 00:10:23;;;;;;;4.38;1.58;;;;;;;;;;4976087;28;20043;-73
2022/03/31 00:12:50;;;;;;;5.35;1.70;;;;;;;;;;4987970;28;20046;-73
2022/03/31 00:15:16;;;;;;;7.18;1.75;;;;;;;;;;4993932;28;20054;-72
2022/03/31 00:17:42;;;;;;;4.05;1.52;;;;;;;;;;4958305;28;20154;-73
2022/03/31 00:22:54;;;;;;;5.03;1.92;;;;;;;;;;4990381;28;20042;-73
2022/03/31 00:25:20;;;;;;;4.57;1.98;;;;;;;;;;4976744;28;20090;-74
2022/03/31 00:27:46;;;;;;;4.45;1.60;;;;;;;;;;4982337;28;20050;-74
2022/03/31 00:30:13;;;;;;;6.68;1.85;;;;;;;;;;4990720;28;20049;-73
2022/03/31 00:32:39;;;;;;;4.07;1.60;;;;;;;;;;4989006;28;20140;-73
2022/03/31 00:35:06;;;;;;;4.20;1.50;;;;;;;;;;4993124;28;20034;-73
2022/03/31 00:37:38;;;;;;;7.07;1.30;;;;;;;;;;4975020;28;20047;-73
2022/03/31 00:40:04;;;;;;;5.55;1.63;;;;;;;;;;4959408;28;20047;-73
2022/03/31 00:42:31;;;;;;;4.55;1.50;;;;;;;;;;4988562;28;20444;-73
2022/03/31 00:44:57;;;;;;;4.70;1.50;;;;;;;;;;4983063;28;20498;-73
2022/03/31 00:47:23;;;;;;;7.60;1.70;;;;;;;;;;4974875;28;20055;-73
2022/03/31 00:49:49;;;;;;;9.07;1.77;;;;;;;;;;4980245;28;20062;-71
2022/03/31 00:52:15;;;;;;;7.45;2.03;;;;;;;;;;4974372;28;20433;-73
2022/03/31 00:54:43;;;;;;;6.57;2.00;;;;;;;;;;4978249;28;20042;-72
2022/03/31 00:57:10;;;;;;;3.30;1.17;;;;;;;;;;4964945;28;20051;-72
2022/03/31 00:59:37;;;;;;;4.57;1.70;;;;;;;;;;4974041;28;20054;-71
2022/03/31 01:02:03;;;;;;;6.97;1.90;;;;;;;;;;4979957;28;20059;-71
2022/03/31 01:04:29;;;;;;;4.20;1.77;;;;;;;;;;4959795;28;20046;-72
2022/03/31 01:06:56;;;;;;;5.32;1.85;;;;;;;;;;4977886;28;20058;-71
2022/03/31 01:09:22;;;;;;;5.35;1.80;;;;;;;;;;4983714;28;20051;-72
2022/03/31 01:11:48;;;;;;;5.00;1.60;;;;;;;;;;4994018;28;20042;-71
2022/03/31 01:14:15;;;;;;;5.90;1.98;;;;;;;;;;4988577;28;20049;-71
2022/03/31 01:16:41;;;;;;;7.38;2.00;;;;;;;;;;4985143;28;20177;-72
2022/03/31 01:19:08;;;;;;;8.15;2.25;;;;;;;;;;4985469;28;20512;-72
2022/03/31 01:21:41;;;;;;;3.85;1.80;;;;;;;;;;4992740;28;20050;-73
2022/03/31 01:24:08;;;;;;;6.10;1.80;;;;;;;;;;4989409;28;20077;-71
2022/03/31 01:26:35;;;;;;;5.22;1.90;;;;;;;;;;4959957;28;20103;-73
2022/03/31 01:29:01;;;;;;;8.63;2.40;;;;;;;;;;4961825;28;20074;-72
2022/03/31 01:31:27;;;;;;;5.55;2.15;;;;;;;;;;4982356;28;20039;-72
2022/03/31 01:33:54;;;;;;;5.50;2.38;;;;;;;;;;4994295;28;20082;-72
2022/03/31 01:36:20;;;;;;;5.50;2.70;;;;;;;;;;4989078;28;20042;-71
2022/03/31 01:38:46;;;;;;;7.88;3.38;;;;;;;;;;4967048;28;20054;-72
2022/03/31 01:41:13;;;;;;;6.50;2.97;;;;;;;;;;4987757;28;20046;-72
2022/03/31 01:43:39;;;;;;;8.48;3.22;;;;;;;;;;4980909;28;20042;-72
2022/03/31 01:46:08;;;;;;;10.02;3.40;;;;;;;;;;4973263;28;20101;-71
2022/03/31 01:48:34;;;;;;;8.98;3.80;;;;;;;;;;4963225;28;20054;-72
2022/03/31 01:51:04;;;;;;;9.73;3.80;;;;;;;;;;4988806;28;20096;-72
2022/03/31 01:53:30;;;;;;;9.55;4.32;;;;;;;;;;4985515;28;20038;-72
2022/03/31 01:55:57;;;;;;;10.10;4.40;;;;;;;;;;4984875;28;20070;-72
2022/03/31 01:58:23;;;;;;;11.70;4.95;;;;;;;;;;4978944;28;20400;-72
2022/03/31 02:00:50;;;;;;;8.52;4.78;;;;;;;;;;4965218;28;20382;-71
2022/03/31 02:03:16;;;;;;;8.93;4.88;;;;;;;;;;4991024;28;20089;-72
2022/03/31 02:05:43;;;;;;;11.82;5.30;;;;;;;;;;4988766;28;20036;-72
2022/03/31 02:08:09;;;;;;;11.40;5.38;;;;;;;;;;4991062;28;20053;-72
2022/03/31 02:10:35;;;;;;;12.88;6.32;;;;;;;;;;4982693;28;20082;-72
2022/03/31 02:13:01;;;;;;;10.95;6.05;;;;;;;;;;4992680;28;20038;-72
2022/03/31 02:15:29;;;;;;;13.38;6.55;;;;;;;;;;4958712;28;20133;-72
2022/03/31 02:17:55;;;;;;;10.38;6.93;;;;;;;;;;4956518;28;20062;-72
2022/03/31 02:20:22;;;;;;;11.38;7.35;;;;;;;;;;4969143;28;20054;-72
2022/03/31 02:22:48;;;;;;;13.73;7.55;;;;;;;;;;4991568;28;20050;-69
2022/03/31 02:25:14;;;;;;;12.20;6.70;;;;;;;;;;4976826;28;20042;-72
2022/03/31 02:27:40;;;;;;;11.75;6.20;;;;;;;;;;4993329;28;20039;-71
2022/03/31 02:30:07;;;;;;;13.25;6.22;;;;;;;;;;4981385;28;20053;-72
2022/03/31 02:32:35;;;;;;;12.25;5.88;;;;;;;;;;4995658;28;20489;-72
2022/03/31 02:35:01;;;;;;;11.30;5.68;;;;;;;;;;4996124;28;20109;-71
2022/03/31 02:37:27;;;;;;;9.98;5.85;;;;;;;;;;4976995;28;20109;-72
2022/03/31 02:39:53;;;;;;;14.20;5.97;;;;;;;;;;4987184;28;20485;-71
2022/03/31 02:42:19;;;;;;;13.75;6.20;;;;;;;;;;4975194;28;20062;-71
2022/03/31 02:44:45;;;;;;;12.43;5.97;;;;;;;;;;4990497;28;20516;-72
2022/03/31 02:47:11;;;;;;;15.70;6.88;;;;;;;;;;4958992;28;20051;-72
2022/03/31 02:49:38;;;;;;;10.90;6.18;;;;;;;;;;4982581;28;20042;-72
2022/03/31 02:52:04;;;;;;;9.75;6.43;;;;;;;;;;4996319;28;20090;-72
2022/03/31 02:57:15;;;;;;;10.90;6.70;;;;;;;;;;4984568;28;20449;-71
2022/03/31 02:59:41;;;;;;;10.18;6.03;;;;;;;;;;4989422;28;20053;-72
2022/03/31 03:02:07;;;;;;;12.85;6.80;;;;;;;;;;4983816;28;20074;-71
2022/03/31 03:04:34;;;;;;;11.55;6.75;;;;;;;;;;4976795;28;20521;-72
2022/03/31 03:07:00;;;;;;;11.48;6.80;;;;;;;;;;4988804;28;20050;-72
2022/03/31 03:09:27;;;;;;;12.27;6.70;;;;;;;;;;4976487;28;20105;-70
2022/03/31 03:11:53;;;;;;;14.50;7.50;;;;;;;;;;4981731;28;20047;-70
2022/03/31 03:14:19;;;;;;;12.60;7.63;;;;;;;;;;4993512;28;20045;-70
2022/03/31 03:16:45;;;;;;;11.68;7.45;;;;;;;;;;4975768;28;20105;-70
2022/03/31 03:19:11;;;;;;;12.18;7.05;;;;;;;;;;4978447;28;20047;-71
2022/03/31 03:21:37;;;;;;;12.70;7.57;;;;;;;;;;4994343;28;20126;-71
2022/03/31 03:24:03;;;;;;;13.00;7.85;;;;;;;;;;4993990;28;20074;-71
2022/03/31 03:26:30;;;;;;;14.70;8.35;;;;;;;;;;4989045;28;20055;-71
2022/03/31 03:28:56;;;;;;;14.27;8.70;;;;;;;;;;4989455;28;20047;-71
2022/03/31 03:31:22;;;;;;;14.50;8.35;;;;;;;;;;4983366;28;20047;-71
2022/03/31 03:33:47;;;;;;;13.85;7.95;;;;;;;;;;4959592;28;20552;-72
2022/03/31 03:36:16;;;;;;;14.10;8.45;;;;;;;;;;4965205;28;20058;-71
2022/03/31 03:38:43;;;;;;;13.80;8.52;;;;;;;;;;4973668;28;20050;-71
2022/03/31 03:41:11;;;;;;;14.20;8.05;;;;;;;;;;4970589;28;20061;-71
2022/03/31 03:43:37;;;;;;;16.60;9.57;;;;;;;;;;4992349;28;20046;-71
2022/03/31 03:46:03;;;;;;;16.98;9.80;;;;;;;;;;4983941;28;20379;-71
2022/03/31 03:48:29;;;;;;;16.10;9.80;;;;;;;;;;4975059;28;20085;-72
2022/03/31 03:50:56;;;;;;;18.92;10.35;;;;;;;;;;4976247;28;20046;-71
2022/03/31 03:53:22;;;;;;;16.80;9.73;;;;;;;;;;4991026;28;20077;-71
2022/03/31 03:55:48;;;;;;;19.45;9.48;;;;;;;;;;4976765;28;20399;-72
2022/03/31 03:58:14;;;;;;;17.25;9.43;;;;;;;;;;4964958;28;20046;-71
2022/03/31 04:00:40;;;;;;;17.65;9.75;;;;;;;;;;4995019;28;20397;-72
2022/03/31 04:03:07;;;;;;;17.52;10.05;;;;;;;;;;4962159;28;20051;-72
2022/03/31 04:05:33;;;;;;;16.80;10.55;;;;;;;;;;4964033;28;20149;-70
2022/03/31 04:07:59;;;;;;;17.27;9.50;;;;;;;;;;4978998;28;20043;-72
2022/03/31 04:10:25;;;;;;;21.25;10.88;;;;;;;;;;4975992;28;20489;-71
2022/03/31 04:12:51;;;;;;;16.02;10.38;;;;;;;;;;4984237;28;20049;-71
2022/03/31 04:15:18;;;;;;;18.58;11.13;;;;;;;;;;4975307;28;20130;-71
2022/03/31 04:17:44;;;;;;;16.55;10.65;;;;;;;;;;4977048;28;20082;-72
2022/03/31 04:20:11;;;;;;;20.00;12.07;;;;;;;;;;4982607;28;20062;-71
2022/03/31 04:22:37;;;;;;;17.98;10.70;;;;;;;;;;4988094;28;20496;-71
2022/03/31 04:25:07;;;;;;;18.25;11.00;;;;;;;;;;4982764;28;20038;-71
2022/03/31 04:27:34;;;;;;;23.77;12.98;;;;;;;;;;4975700;28;20046;-71
2022/03/31 04:30:00;;;;;;;20.17;11.48;;;;;;;;;;4972143;28;20053;-72
2022/03/31 04:32:26;;;;;;;20.33;12.13;;;;;;;;;;4994130;28;20035;-71
2022/03/31 04:34:52;;;;;;;20.05;12.20;;;;;;;;;;4993446;28;20082;-71
2022/03/31 04:37:18;;;;;;;20.42;11.80;;;;;;;;;;4987245;28;20046;-71
2022/03/31 04:39:44;;;;;;;19.23;11.73;;;;;;;;;;4972702;28;20173;-72
2022/03/31 04:42:10;;;;;;;19.00;12.07;;;;;;;;;;4979954;28;20184;-71
2022/03/31 04:44:38;;;;;;;18.48;11.57;;;;;;;;;;4977386;28;20387;-71
2022/03/31 04:47:04;;;;;;;19.60;11.88;;;;;;;;;;4951548;28;20059;-71
2022/03/31 04:49:30;;;;;;;21.70;12.68;;;;;;;;;;4954065;29;20051;-71
2022/03/31 04:51:57;;;;;;;18.67;11.57;;;;;;;;;;4948653;29;20047;-72
2022/03/31 04:54:23;;;;;;;17.88;11.77;;;;;;;;;;4952944;29;20498;-71
2022/03/31 04:56:49;;;;;;;19.45;12.13;;;;;;;;;;4948647;29;20121;-70
2022/03/31 04:59:15;;;;;;;23.35;12.45;;;;;;;;;;4938792;28;20083;-71
2022/03/31 05:01:41;;;;;;;25.42;13.38;;;;;;;;;;4939559;29;20091;-71
2022/03/31 05:04:07;;;;;;;21.08;12.93;;;;;;;;;;4947051;29;20043;-71
2022/03/31 05:06:33;;;;;;;23.35;12.75;;;;;;;;;;4939832;29;20136;-72
2022/03/31 05:08:59;;;;;;;22.17;12.55;;;;;;;;;;4947798;29;20130;-71
2022/03/31 05:11:25;;;;;;;27.35;14.38;;;;;;;;;;4935851;29;20040;-71
2022/03/31 05:13:51;;;;;;;21.00;13.63;;;;;;;;;;4939811;29;20039;-72
2022/03/31 05:16:17;;;;;;;22.00;13.18;;;;;;;;;;4955441;29;20130;-71
2022/03/31 05:18:43;;;;;;;28.60;13.40;;;;;;;;;;4952278;29;20048;-72
2022/03/31 05:21:09;;;;;;;28.40;14.40;;;;;;;;;;4947395;29;20047;-72
2022/03/31 05:23:35;;;;;;;23.85;12.88;;;;;;;;;;4947071;29;20171;-72
2022/03/31 05:26:01;;;;;;;27.65;14.93;;;;;;;;;;4943167;29;20039;-72
2022/03/31 05:28:27;;;;;;;22.25;13.40;;;;;;;;;;4936003;29;20055;-72
2022/03/31 05:30:53;;;;;;;24.65;13.25;;;;;;;;;;4953471;29;20043;-73
2022/03/31 05:33:19;;;;;;;23.45;12.88;;;;;;;;;;4955086;29;20516;-72
2022/03/31 05:35:45;;;;;;;22.38;12.75;;;;;;;;;;4953193;29;20050;-73
2022/03/31 05:38:11;;;;;;;21.80;13.13;;;;;;;;;;4934661;29;20509;-73
2022/03/31 05:40:38;;;;;;;19.95;12.35;;;;;;;;;;4941095;29;20502;-73
2022/03/31 05:43:04;;;;;;;17.95;11.85;;;;;;;;;;4935148;29;20047;-72
2022/03/31 05:45:30;;;;;;;22.08;11.90;;;;;;;;;;4946658;29;20048;-72
2022/03/31 05:47:56;;;;;;;37.25;14.85;;;;;;;;;;4962689;28;20047;-71
2022/03/31 05:50:22;;;;;;;21.83;12.43;;;;;;;;;;4975818;28;20457;-72
2022/03/31 05:52:48;;;;;;;21.50;12.77;;;;;;;;;;4953445;28;20410;-71
2022/03/31 05:55:16;;;;;;;18.98;12.48;;;;;;;;;;4966940;28;20051;-72
2022/03/31 05:57:42;;;;;;;21.02;12.63;;;;;;;;;;4951585;29;20065;-71
2022/03/31 06:00:10;;;;;;;20.45;13.20;;;;;;;;;;4957604;28;20502;-71
2022/03/31 06:02:36;;;;;;;25.92;14.52;;;;;;;;;;4966719;28;20050;-72
2022/03/31 06:05:02;;;;;;;22.27;13.98;;;;;;;;;;4976835;28;20054;-72
2022/03/31 06:07:28;;;;;;;30.27;14.13;;;;;;;;;;4971872;28;20122;-71
2022/03/31 06:09:54;;;;;;;25.58;15.00;;;;;;;;;;4965876;28;20174;-73
2022/03/31 06:12:20;;;;;;;25.58;14.27;;;;;;;;;;4957260;28;20043;-72
2022/03/31 06:14:46;;;;;;;29.58;14.95;;;;;;;;;;4967614;28;20507;-71
2022/03/31 06:17:12;;;;;;;24.88;14.48;;;;;;;;;;4957032;28;20039;-72
2022/03/31 06:19:38;;;;;;;27.80;15.32;;;;;;;;;;4958185;28;20080;-71
2022/03/31 06:22:04;;;;;;;29.20;15.82;;;;;;;;;;4957629;28;20462;-72
2022/03/31 06:24:30;;;;;;;27.80;15.07;;;;;;;;;;4971289;28;20063;-72
2022/03/31 06:26:57;;;;;;;28.88;14.88;;;;;;;;;;4963958;28;20046;-73
2022/03/31 06:29:25;;;;;;;28.55;15.65;;;;;;;;;;4958171;28;20055;-72
2022/03/31 06:31:51;;;;;;;26.60;16.20;;;;;;;;;;4974907;28;20050;-71
2022/03/31 06:34:18;;;;;;;28.92;17.02;;;;;;;;;;4977586;28;20050;-71
2022/03/31 06:36:44;;;;;;;36.10;17.60;;;;;;;;;;4965326;28;20051;-72
2022/03/31 06:39:10;;;;;;;32.42;17.40;;;;;;;;;;4957856;28;20086;-72
2022/03/31 06:41:36;;;;;;;31.73;17.60;;;;;;;;;;4956946;28;20066;-71
2022/03/31 06:44:02;;;;;;;36.05;17.63;;;;;;;;;;4960479;28;20491;-72
2022/03/31 06:46:29;;;;;;;26.88;16.45;;;;;;;;;;4958116;28;20055;-72
2022/03/31 06:48:58;;;;;;;32.20;17.02;;;;;;;;;;4977233;28;20078;-71
2022/03/31 06:51:24;;;;;;;30.42;18.08;;;;;;;;;;4976340;28;20472;-71
2022/03/31 06:53:50;;;;;;;30.92;16.77;;;;;;;;;;4978621;28;20047;-70
2022/03/31 06:56:18;;;;;;;35.03;17.98;;;;;;;;;;4991240;28;20501;-72
2022/03/31 06:58:44;;;;;;;36.63;19.05;;;;;;;;;;4980912;28;20548;-71
2022/03/31 07:01:11;;;;;;;28.67;17.58;;;;;;;;;;4994133;28;20102;-72
2022/03/31 07:03:37;;;;;;;28.77;17.48;;;;;;;;;;4976704;28;20103;-71
2022/03/31 07:06:03;;;;;;;31.98;17.17;;;;;;;;;;4979700;28;20081;-71
2022/03/31 07:08:30;;;;;;;28.60;17.63;;;;;;;;;;4988650;28;20161;-71
2022/03/31 07:10:56;;;;;;;35.28;18.27;;;;;;;;;;4961989;28;20490;-71
2022/03/31 07:13:22;;;;;;;29.40;16.33;;;;;;;;;;4996117;28;20077;-72
2022/03/31 07:15:48;;;;;;;29.98;16.67;;;;;;;;;;4990583;28;20057;-73
2022/03/31 07:18:14;;;;;;;31.30;17.70;;;;;;;;;;4982648;28;20046;-73
2022/03/31 07:20:41;;;;;;;58.75;20.52;;;;;;;;;;4983258;28;20051;-71
2022/03/31 07:23:07;;;;;;;32.05;17.40;;;;;;;;;;4992133;28;20039;-74
2022/03/31 07:25:33;;;;;;;31.05;17.33;;;;;;;;;;4990264;28;20200;-71
2022/03/31 07:27:59;;;;;;;27.55;16.67;;;;;;;;;;4980499;28;20508;-71
2022/03/31 07:30:25;;;;;;;31.92;18.52;;;;;;;;;;4967894;28;20424;-72
2022/03/31 07:32:51;;;;;;;31.23;18.52;;;;;;;;;;4977118;28;20394;-72
2022/03/31 07:35:18;;;;;;;40.47;19.23;;;;;;;;;;4981617;28;20501;-73
2022/03/31 07:37:44;;;;;;;34.60;17.85;;;;;;;;;;4975170;28;20278;-73
2022/03/31 07:40:11;;;;;;;37.55;17.30;;;;;;;;;;4981734;28;20038;-72
2022/03/31 07:42:37;;;;;;;37.05;19.50;;;;;;;;;;4976989;28;20046;-73
2022/03/31 07:45:03;;;;;;;32.53;18.17;;;;;;;;;;4982403;28;20043;-72
2022/03/31 07:47:29;;;;;;;36.90;18.83;;;;;;;;;;4971987;28;20062;-72
2022/03/31 07:49:55;;;;;;;41.10;20.83;;;;;;;;;;4990098;28;20182;-72
2022/03/31 07:52:22;;;;;;;32.80;19.08;;;;;;;;;;4964844;28;20084;-72
2022/03/31 07:54:48;;;;;;;36.15;19.92;;;;;;;;;;4986779;28;20054;-72
2022/03/31 07:57:14;;;;;;;39.17;19.67;;;;;;;;;;4956333;28;20053;-72
2022/03/31 07:59:40;;;;;;;36.95;19.42;;;;;;;;;;4972687;28;20065;-72
2022/03/31 08:02:07;;;;;;;45.60;22.00;;;;;;;;;;4987080;28;20473;-73
2022/03/31 08:04:33;;;;;;;37.67;20.67;;;;;;;;;;4994091;28;20049;-73
2022/03/31 08:06:59;;;;;;;33.58;19.73;;;;;;;;;;4983997;28;20050;-73
2022/03/31 08:09:26;;;;;;;36.70;19.95;;;;;;;;;;4984384;28;20058;-73
2022/03/31 08:11:52;;;;;;;35.05;19.98;;;;;;;;;;4987608;28;20058;-73
2022/03/31 08:14:21;;;;;;;32.20;18.60;;;;;;;;;;4986841;28;20074;-73
2022/03/31 08:16:48;;;;;;;34.47;18.83;;;;;;;;;;4981698;28;20050;-73
2022/03/31 08:19:17;;;;;;;31.27;18.90;;;;;;;;;;4989205;28;20544;-73
2022/03/31 08:21:44;;;;;;;40.83;19.27;;;;;;;;;;4975017;28;20054;-73
2022/03/31 08:24:11;;;;;;;30.77;19.00;;;;;;;;;;4958727;28;20050;-73
2022/03/31 08:26:37;;;;;;;33.17;18.42;;;;;;;;;;4991118;28;20051;-73
2022/03/31 08:29:04;;;;;;;31.48;17.67;;;;;;;;;;4993234;28;20057;-73
2022/03/31 08:31:30;;;;;;;28.58;17.23;;;;;;;;;;4959811;28;20043;-72
2022/03/31 08:33:56;;;;;;;31.05;17.13;;;;;;;;;;4989485;28;20069;-71
2022/03/31 08:36:22;;;;;;;30.30;17.65;;;;;;;;;;4959407;28;20081;-73
2022/03/31 08:38:48;;;;;;;30.52;17.55;;;;;;;;;;4975411;28;20515;-72
2022/03/31 08:41:15;;;;;;;41.78;18.38;;;;;;;;;;4958452;28;20462;-73
2022/03/31 08:43:42;;;;;;;27.25;16.67;;;;;;;;;;4976861;28;20046;-73
2022/03/31 08:46:10;;;;;;;27.70;17.05;;;;;;;;;;4974369;28;20051;-74
2022/03/31 08:48:39;;;;;;;24.00;14.53;;;;;;;;;;4978763;28;20133;-72
2022/03/31 08:51:05;;;;;;;27.08;13.68;;;;;;;;;;4967338;28;20807;-72
2022/03/31 08:53:35;;;;;;;22.48;12.70;;;;;;;;;;4976921;28;20461;-73
2022/03/31 08:56:01;;;;;;;14.88;10.45;;;;;;;;;;4977481;28;20065;-72
2022/03/31 08:58:27;;;;;;;19.08;10.77;;;;;;;;;;4976696;28;20126;-73
2022/03/31 09:00:54;;;;;;;28.02;11.02;;;;;;;;;;4976432;28;20117;-73
2022/03/31 09:03:20;;;;;;;14.23;8.18;;;;;;;;;;4982070;28;20047;-73
2022/03/31 09:05:49;;;;;;;15.30;9.10;;;;;;;;;;4988863;28;20046;-72
2022/03/31 09:08:16;;;;;;;17.83;8.80;;;;;;;;;;4967171;28;20043;-73
2022/03/31 09:10:47;;;;;;;13.73;8.75;;;;;;;;;;4987228;28;20050;-73
2022/03/31 09:13:22;;;;;;;16.20;8.90;;;;;;;;;;4984073;28;20070;-73
2022/03/31 09:15:56;;;;;;;15.85;8.68;;;;;;;;;;4985576;28;20038;-73
2022/03/31 09:18:22;;;;;;;17.38;8.23;;;;;;;;;;4971599;28;20133;-72
2022/03/31 09:20:50;;;;;;;14.68;8.02;;;;;;;;;;4985662;28;20513;-73
2022/03/31 09:23:17;;;;;;;15.20;7.38;;;;;;;;;;4970343;28;20046;-72
2022/03/31 09:25:44;;;;;;;17.45;8.52;;;;;;;;;;4982305;28;20042;-73
2022/03/31 09:28:14;;;;;;;15.98;8.25;;;;;;;;;;4968849;28;20043;-73
2022/03/31 09:30:53;;;;;;;13.20;7.32;;;;;;;;;;4965379;28;20042;-72
2022/03/31 09:33:19;;;;;;;;;;;;;;;;;;4989439;28;20047;-72
2022/03/31 09:35:46;;;;;;;11.68;7.10;;;;;;;;;;4990485;28;20371;-72
2022/03/31 09:38:12;;;;;;;14.15;6.60;;;;;;;;;;4972653;28;20047;-72
2022/03/31 09:40:38;;;;;;;10.63;6.47;;;;;;;;;;4974877;28;20050;-72
2022/03/31 09:43:04;;;;;;;7.90;5.70;;;;;;;;;;4986702;28;20039;-71
2022/03/31 09:45:40;;;;;;;8.55;5.43;;;;;;;;;;4976599;28;20042;-72
2022/03/31 09:48:16;;;;;;;9.13;5.80;;;;;;;;;;4989800;28;20094;-71
2022/03/31 09:50:43;;;;;;;15.40;6.50;;;;;;;;;;4968960;28;20428;-70
2022/03/31 09:53:09;;;;;;;8.98;5.57;;;;;;;;;;4962704;28;20042;-71
2022/03/31 09:55:35;;;;;;;14.68;6.82;;;;;;;;;;4997864;28;20042;-71
2022/03/31 09:58:02;;;;;;;11.15;5.40;;;;;;;;;;4976111;28;20054;-71
2022/03/31 10:00:28;;;;;;;11.13;5.65;;;;;;;;;;4992204;28;20104;-71
2022/03/31 10:02:55;;;;;;;17.85;6.57;;;;;;;;;;4988859;28;20130;-72
2022/03/31 10:05:21;;;;;;;13.20;6.30;;;;;;;;;;4974825;28;20129;-73
2022/03/31 10:07:50;;;;;;;18.67;7.45;;;;;;;;;;4976117;28;20054;-73
2022/03/31 10:10:16;;;;;;;;;;;;;;;;;;4992642;28;20084;-73
2022/03/31 10:12:51;;;;;;;9.85;5.93;;;;;;;;;;4968342;28;20357;-71
2022/03/31 10:15:23;;;;;;;9.07;5.55;;;;;;;;;;4988104;28;20511;-73
2022/03/31 10:17:49;;;;;;;10.00;5.90;;;;;;;;;;4971581;28;20054;-72
2022/03/31 10:20:16;;;;;;;12.85;6.47;;;;;;;;;;4982280;28;20046;-72
2022/03/31 10:25:47;;;;;;;9.20;4.97;;;;;;;;;;4996395;28;20085;-72
2022/03/31 10:28:15;;;;;;;7.75;5.60;;;;;;;;;;4992182;28;20042;-73
2022/03/31 10:30:52;;;;;;;15.63;6.00;;;;;;;;;;4978794;28;20109;-72
2022/03/31 10:33:27;;;;;;;11.90;5.40;;;;;;;;;;4976355;28;20287;-72
2022/03/31 10:36:00;;;;;;;8.23;5.43;;;;;;;;;;4966768;28;20086;-72
2022/03/31 10:38:27;;;;;;;10.07;5.95;;;;;;;;;;4988561;28;20101;-72
2022/03/31 10:40:59;;;;;;;14.32;6.00;;;;;;;;;;4970458;28;20086;-72
2022/03/31 10:43:27;;;;;;;9.25;6.13;;;;;;;;;;4959971;28;20118;-73
2022/03/31 10:45:54;;;;;;;12.60;6.47;;;;;;;;;;4961936;28;20433;-73
2022/03/31 10:48:25;;;;;;;10.23;5.93;;;;;;;;;;4985796;28;20420;-72
2022/03/31 10:51:20;;;;;;;9.68;6.28;;;;;;;;;;4953182;28;20047;-73
2022/03/31 10:53:49;;;;;;;8.45;5.80;;;;;;;;;;4962739;28;20057;-73
2022/03/31 10:56:19;;;;;;;12.48;6.40;;;;;;;;;;4968813;28;20042;-72
2022/03/31 10:58:45;;;;;;;26.85;9.15;;;;;;;;;;4985106;28;20073;-73
2022/03/31 11:01:12;;;;;;;12.48;6.80;;;;;;;;;;4990229;28;20069;-73
2022/03/31 11:03:38;;;;;;;17.15;7.75;;;;;;;;;;4966631;28;20078;-73
2022/03/31 11:06:08;;;;;;;13.13;6.55;;;;;;;;;;4995014;28;20042;-72
2022/03/31 11:08:41;;;;;;;24.45;9.05;;;;;;;;;;4990656;28;20588;-72
2022/03/31 11:11:08;;;;;;;16.05;8.00;;;;;;;;;;4974092;28;20051;-73
2022/03/31 11:13:37;;;;;;;13.93;7.63;;;;;;;;;;4977783;28;20050;-73
2022/03/31 11:16:05;;;;;;;11.77;7.63;;;;;;;;;;4974613;28;20050;-72
2022/03/31 11:18:31;;;;;;;13.90;8.25;;;;;;;;;;4969404;28;20039;-71
2022/03/31 11:20:58;;;;;;;12.25;7.80;;;;;;;;;;4986740;28;20050;-72
2022/03/31 11:23:24;;;;;;;10.25;7.47;;;;;;;;;;4976308;28;20047;-71
2022/03/31 11:25:50;;;;;;;11.75;7.72;;;;;;;;;;4974748;28;20202;-72
2022/03/31 11:28:16;;;;;;;11.98;7.93;;;;;;;;;;4961783;28;20065;-72
2022/03/31 11:30:48;;;;;;;14.98;8.80;;;;;;;;;;4969923;28;20046;-71
2022/03/31 11:33:14;;;;;;;13.82;9.07;;;;;;;;;;4974819;28;20047;-72
2022/03/31 11:35:40;;;;;;;14.05;9.38;;;;;;;;;;4985345;28;20038;-72
2022/03/31 11:38:10;;;;;;;15.50;9.68;;;;;;;;;;4971619;28;20051;-72
2022/03/31 11:40:37;;;;;;;15.57;9.70;;;;;;;;;;4985533;28;20042;-72
2022/03/31 11:43:05;;;;;;;18.58;10.45;;;;;;;;;;4984110;28;20058;-73
2022/03/31 11:45:36;;;;;;;25.13;11.40;;;;;;;;;;4983636;28;20129;-73
2022/03/31 11:48:04;;;;;;;19.00;11.85;;;;;;;;;;4970322;28;20058;-72
2022/03/31 11:50:31;;;;;;;17.70;11.00;;;;;;;;;;4959298;28;20135;-73
2022/03/31 11:52:57;;;;;;;19.33;12.52;;;;;;;;;;4970542;28;20073;-72
2022/03/31 11:55:23;;;;;;;21.48;12.57;;;;;;;;;;4975792;28;20050;-72
2022/03/31 11:57:51;;;;;;;25.52;12.73;;;;;;;;;;4969367;28;20438;-72
2022/03/31 12:00:17;;;;;;;21.75;12.27;;;;;;;;;;4980992;28;20050;-71
2022/03/31 12:02:54;;;;;;;22.05;13.35;;;;;;;;;;4975724;28;20054;-72
2022/03/31 12:05:20;;;;;;;22.30;14.13;;;;;;;;;;4969043;28;20398;-71
2022/03/31 12:07:47;;;;;;;23.90;14.13;;;;;;;;;;4961513;28;20043;-72
2022/03/31 12:10:13;;;;;;;24.80;14.73;;;;;;;;;;4959353;28;20464;-72
2022/03/31 12:12:46;;;;;;;27.80;15.27;;;;;;;;;;4973561;28;20054;-72
2022/03/31 12:15:18;;;;;;;27.63;15.32;;;;;;;;;;4994491;28;20054;-72
2022/03/31 12:17:56;;;;;;;30.60;16.95;;;;;;;;;;4983663;28;20058;-72
2022/03/31 12:20:22;;;;;;;32.90;17.70;;;;;;;;;;4975635;28;20502;-72
2022/03/31 12:22:48;;;;;;;38.28;19.45;;;;;;;;;;4975741;28;20043;-73
2022/03/31 12:25:14;;;;;;;35.10;19.73;;;;;;;;;;4993694;28;20064;-72
2022/03/31 12:27:46;;;;;;;44.92;20.33;;;;;;;;;;4994179;28;20047;-72
2022/03/31 12:30:14;;;;;;;44.38;21.00;;;;;;;;;;4968098;28;20050;-72
2022/03/31 12:32:47;;;;;;;42.70;22.35;;;;;;;;;;4972091;28;20513;-72
2022/03/31 12:35:14;;;;;;;45.75;22.95;;;;;;;;;;4974823;28;20449;-72
2022/03/31 12:37:40;;;;;;;60.67;25.38;;;;;;;;;;4993851;28;20491;-72
2022/03/31 12:40:07;;;;;;;54.00;25.92;;;;;;;;;;4988736;28;20096;-73
2022/03/31 12:42:35;;;;;;;52.85;26.42;;;;;;;;;;4976363;28;20101;-73
2022/03/31 12:45:10;;;;;;;47.67;25.42;;;;;;;;;;4978448;28;20105;-73
2022/03/31 12:47:41;;;;;;;55.95;26.45;;;;;;;;;;4976194;28;20129;-72
2022/03/31 12:50:15;;;;;;;58.60;27.88;;;;;;;;;;4971716;28;20043;-71
2022/03/31 12:52:51;;;;;;;52.10;27.52;;;;;;;;;;4971711;28;20049;-72
2022/03/31 12:55:17;;;;;;;48.05;25.88;;;;;;;;;;4975418;28;20406;-72
2022/03/31 12:57:54;;;;;;;68.00;30.05;;;;;;;;;;4983523;28;20049;-72
2022/03/31 13:00:21;;;;;;;45.75;25.40;;;;;;;;;;4972203;28;20129;-72
2022/03/31 13:02:48;;;;;;;122.70;40.08;;;;;;;;;;4958165;28;20051;-72
2022/03/31 13:05:22;;;;;;;76.07;30.50;;;;;;;;;;4981501;28;20609;-71
2022/03/31 13:07:50;;;;;;;41.72;25.75;;;;;;;;;;4957491;28;20085;-72
2022/03/31 13:10:17;;;;;;;54.08;28.85;;;;;;;;;;4949879;28;20441;-72
2022/03/31 13:12:43;;;;;;;59.55;28.33;;;;;;;;;;4957551;28;20073;-71
2022/03/31 13:15:11;;;;;;;46.60;26.90;;;;;;;;;;4957118;28;20130;-72
2022/03/31 13:17:37;;;;;;;60.17;28.75;;;;;;;;;;4990843;28;20049;-72
2022/03/31 13:20:03;;;;;;;47.92;28.40;;;;;;;;;;4946603;28;20053;-73
2022/03/31 13:22:29;;;;;;;47.35;26.63;;;;;;;;;;4963378;28;20046;-72
2022/03/31 13:24:55;;;;;;;46.38;27.13;;;;;;;;;;4973970;28;20129;-73
2022/03/31 13:27:21;;;;;;;42.95;26.42;;;;;;;;;;4993977;28;20049;-71
2022/03/31 13:29:48;;;;;;;43.35;24.58;;;;;;;;;;4991744;28;20038;-72
2022/03/31 13:32:14;;;;;;;41.95;24.88;;;;;;;;;;4974661;28;20042;-72
2022/03/31 13:34:46;;;;;;;44.17;25.05;;;;;;;;;;4974580;28;20047;-72
2022/03/31 13:37:12;;;;;;;40.53;23.88;;;;;;;;;;4988905;28;20416;-72
2022/03/31 13:39:38;;;;;;;46.88;25.13;;;;;;;;;;4992046;28;20124;-72
2022/03/31 13:42:05;;;;;;;36.75;22.98;;;;;;;;;;4961191;28;20486;-73
2022/03/31 13:44:31;;;;;;;37.78;23.35;;;;;;;;;;4992055;28;20049;-73
2022/03/31 13:46:57;;;;;;;34.88;22.00;;;;;;;;;;4975295;28;20058;-72
2022/03/31 13:49:24;;;;;;;36.35;22.30;;;;;;;;;;4992762;28;20089;-72
2022/03/31 13:51:50;;;;;;;34.05;22.30;;;;;;;;;;4988325;28;20476;-73
2022/03/31 13:54:17;;;;;;;39.97;22.73;;;;;;;;;;4972387;28;20506;-71
2022/03/31 13:56:45;;;;;;;34.95;21.98;;;;;;;;;;4983835;28;20054;-73
2022/03/31 14:01:57;;;;;;;35.55;20.77;;;;;;;;;;4991194;28;20054;-71
2022/03/31 14:04:24;;;;;;;35.03;20.77;;;;;;;;;;4959317;28;20133;-73
2022/03/31 14:06:51;;;;;;;45.70;24.10;;;;;;;;;;4977098;28;20042;-72
2022/03/31 14:09:19;;;;;;;34.45;21.23;;;;;;;;;;4974113;28;20042;-72
2022/03/31 14:11:45;;;;;;;57.38;24.35;;;;;;;;;;4974591;28;20051;-73
2022/03/31 14:14:13;;;;;;;71.82;27.55;;;;;;;;;;4960578;28;20047;-73
2022/03/31 14:16:40;;;;;;;46.10;21.52;;;;;;;;;;4972939;28;20054;-71
2022/03/31 14:19:07;;;;;;;31.52;18.73;;;;;;;;;;4986785;28;20057;-73
2022/03/31 14:21:33;;;;;;;34.10;20.02;;;;;;;;;;4976045;28;20042;-73
2022/03/31 14:24:00;;;;;;;32.05;19.95;;;;;;;;;;4978460;28;20066;-72
2022/03/31 14:26:26;;;;;;;27.17;17.85;;;;;;;;;;4977432;28;20452;-73
2022/03/31 14:28:53;;;;;;;28.67;19.75;;;;;;;;;;4986647;28;20096;-73
2022/03/31 14:31:22;;;;;;;23.73;17.42;;;;;;;;;;4975527;28;20114;-73
2022/03/31 14:33:49;;;;;;;37.35;21.02;;;;;;;;;;4971993;28;20553;-73
2022/03/31 14:36:15;;;;;;;29.23;18.67;;;;;;;;;;4968651;28;20049;-75